Time;durP1;ratioP1;P1;durP2;ratioP2;P2;SDS_P1;SDS_P2;PMS_P1;PMS_P2;Temp;Humidity;BMP_temperature;BMP_pressure;BME280_temperature;BME280_humidity;BME280_pressure;Samples;Min_cycle;Max_cycle;Signal;HPM_P1;HPM_P2
2023/08/14 00:02:18;;;;;;;;;;;23.70;1.00;;;;;;4881933;29;19923;-47
2023/08/14 00:04:45;;;;;;;;;;;23.70;1.00;;;;;;4889699;29;20027;-52
2023/08/14 00:07:12;;;;;;;;;;;23.70;1.00;;;;;;4889722;29;19927;-47
2023/08/14 00:09:38;;;;;;;;;;;23.70;1.00;;;;;;4881958;29;19964;-50
2023/08/14 00:12:05;;;;;;;;;;;23.70;1.00;;;;;;4896727;29;19924;-52
2023/08/14 00:14:32;;;;;;;;;;;23.70;1.00;;;;;;4888352;29;19934;-51
2023/08/14 00:16:59;;;;;;;;;;;23.70;1.00;;;;;;4890468;29;20379;-50
2023/08/14 00:19:26;;;;;;;;;;;23.70;1.00;;;;;;4870757;29;19934;-47
2023/08/14 00:21:52;;;;;;;;;;;23.70;1.00;;;;;;4891182;29;20348;-50
2023/08/14 00:24:19;;;;;;;;;;;23.70;1.00;;;;;;4886190;29;20384;-51
2023/08/14 00:26:46;;;;;;;;;;;23.60;1.00;;;;;;4883989;29;19924;-51
2023/08/14 00:29:13;;;;;;;;;;;23.70;1.00;;;;;;4872401;29;19924;-47
2023/08/14 00:31:39;;;;;;;;;;;23.60;1.00;;;;;;4888994;29;20365;-51
2023/08/14 00:34:06;;;;;;;;;;;23.60;1.00;;;;;;4864218;29;19928;-48
2023/08/14 00:36:33;;;;;;;;;;;23.60;1.00;;;;;;4878570;29;19923;-47
2023/08/14 00:38:59;;;;;;;;;;;23.60;1.00;;;;;;4884247;29;20336;-50
2023/08/14 00:41:26;;;;;;;;;;;23.60;1.00;;;;;;4869609;29;19991;-51
2023/08/14 00:43:53;;;;;;;;;;;23.60;1.00;;;;;;4881002;29;19962;-47
2023/08/14 00:46:20;;;;;;;;;;;23.60;1.00;;;;;;4872059;29;19956;-51
2023/08/14 00:48:47;;;;;;;;;;;23.60;1.00;;;;;;4864139;29;19923;-51
2023/08/14 00:51:14;;;;;;;;;;;23.60;1.00;;;;;;4881166;29;19954;-52
2023/08/14 00:53:41;;;;;;;;;;;23.60;1.00;;;;;;4871216;29;19930;-48
2023/08/14 00:56:08;;;;;;;;;;;23.60;1.00;;;;;;4872008;29;19924;-51
2023/08/14 00:58:34;;;;;;;;;;;23.60;1.00;;;;;;4871747;29;19948;-51
2023/08/14 01:01:01;;;;;;;;;;;23.60;1.00;;;;;;4871435;29;19924;-49
2023/08/14 01:03:28;;;;;;;;;;;23.60;1.00;;;;;;4864152;29;20017;-47
2023/08/14 01:05:55;;;;;;;;;;;23.60;1.00;;;;;;4871511;29;19923;-52
2023/08/14 01:08:22;;;;;;;;;;;23.60;1.00;;;;;;4881122;29;19991;-47
2023/08/14 01:10:59;;;;;;;;;;;23.60;1.00;;;;;;4888125;29;20306;-51
2023/08/14 01:13:46;;;;;;;;;;;23.60;1.00;;;;;;4864301;29;19931;-49
2023/08/14 01:16:17;;;;;;;;;;;23.60;1.00;;;;;;4863777;29;20422;-51
2023/08/14 01:18:45;;;;;;;;;;;23.60;1.00;;;;;;4863768;29;20345;-51
2023/08/14 01:21:15;;;;;;;;;;;23.60;1.00;;;;;;4887832;29;20022;-52
2023/08/14 01:24:08;;;;;;;;;;;23.60;1.00;;;;;;4870566;29;19934;-46
2023/08/14 01:26:35;;;;;;;;;;;23.50;1.00;;;;;;4845532;29;20385;-51
2023/08/14 01:29:02;;;;;;;;;;;23.60;1.00;;;;;;4863095;29;20336;-50
2023/08/14 01:31:30;;;;;;;;;;;23.60;1.00;;;;;;4871276;29;19924;-50
2023/08/14 01:33:57;;;;;;;;;;;23.50;1.00;;;;;;4888340;29;20206;-52
2023/08/14 01:36:47;;;;;;;;;;;23.50;1.00;;;;;;4884839;29;19962;-49
2023/08/14 01:39:16;;;;;;;;;;;23.50;1.00;;;;;;4871332;29;20022;-50
2023/08/14 01:41:42;;;;;;;;;;;23.50;1.00;;;;;;4880595;29;19928;-49
2023/08/14 01:44:12;;;;;;;;;;;23.50;1.00;;;;;;4887449;29;20268;-51
2023/08/14 01:46:42;;;;;;;;;;;23.50;1.00;;;;;;4888180;29;20010;-47
2023/08/14 01:49:11;;;;;;;;;;;23.50;1.00;;;;;;4879862;29;19923;-49
2023/08/14 01:51:38;;;;;;;;;;;23.50;1.00;;;;;;4879597;29;19923;-46
2023/08/14 01:54:05;;;;;;;;;;;23.50;1.00;;;;;;4879857;29;19923;-46
2023/08/14 01:56:32;;;;;;;;;;;23.50;1.00;;;;;;4887355;29;19924;-47
2023/08/14 01:58:59;;;;;;;;;;;23.50;1.00;;;;;;4870499;29;19975;-47
2023/08/14 02:01:26;;;;;;;;;;;23.50;1.00;;;;;;4870523;29;19980;-50
2023/08/14 02:03:52;;;;;;;;;;;23.50;1.00;;;;;;4878504;29;19931;-50
2023/08/14 02:06:20;;;;;;;;;;;23.50;1.00;;;;;;4862924;29;20344;-49
2023/08/14 02:08:46;;;;;;;;;;;23.40;1.00;;;;;;4869690;29;19924;-46
2023/08/14 02:11:13;;;;;;;;;;;23.40;1.00;;;;;;4882563;29;19967;-49
2023/08/14 02:13:41;;;;;;;;;;;23.40;1.00;;;;;;4867507;29;19944;-44
2023/08/14 02:16:08;;;;;;;;;;;23.40;1.00;;;;;;4887271;29;19923;-48
2023/08/14 02:18:34;;;;;;;;;;;23.40;1.00;;;;;;4879376;29;19930;-46
2023/08/14 02:21:01;;;;;;;;;;;23.40;1.00;;;;;;4879987;29;20018;-48
2023/08/14 02:23:28;;;;;;;;;;;23.40;1.00;;;;;;4890899;29;19930;-45
2023/08/14 02:25:55;;;;;;;;;;;23.40;1.00;;;;;;4864467;29;20376;-47
2023/08/14 02:28:22;;;;;;;;;;;23.40;1.00;;;;;;4862928;29;20399;-44
2023/08/14 02:30:49;;;;;;;;;;;23.40;1.00;;;;;;4888186;29;19941;-46
2023/08/14 02:33:17;;;;;;;;;;;23.40;1.00;;;;;;4879511;29;19924;-50
2023/08/14 02:35:43;;;;;;;;;;;23.40;1.00;;;;;;4862675;29;20010;-46
2023/08/14 02:38:11;;;;;;;;;;;23.40;1.00;;;;;;4879341;29;19934;-50
2023/08/14 02:40:38;;;;;;;;;;;23.40;1.00;;;;;;4886591;29;20006;-46
2023/08/14 02:43:05;;;;;;;;;;;23.40;1.00;;;;;;4871787;29;20424;-51
2023/08/14 02:45:32;;;;;;;;;;;23.40;1.00;;;;;;4879290;29;19935;-48
2023/08/14 02:47:59;;;;;;;;;;;23.40;1.00;;;;;;4862830;29;20018;-46
2023/08/14 02:50:28;;;;;;;;;;;23.40;1.00;;;;;;4879049;29;19931;-46
2023/08/14 02:52:54;;;;;;;;;;;23.30;1.00;;;;;;4879484;29;19924;-48
2023/08/14 02:55:22;;;;;;;;;;;23.30;1.00;;;;;;4879154;29;19923;-45
2023/08/14 02:57:49;;;;;;;;;;;23.40;1.00;;;;;;4879236;29;19923;-48
2023/08/14 03:00:16;;;;;;;;;;;23.40;1.00;;;;;;4862200;29;19930;-45
2023/08/14 03:02:43;;;;;;;;;;;23.30;1.00;;;;;;4862673;29;19967;-45
2023/08/14 03:05:10;;;;;;;;;;;23.30;1.00;;;;;;4863849;29;19958;-46
2023/08/14 03:07:37;;;;;;;;;;;23.30;1.00;;;;;;4884867;29;19924;-50
2023/08/14 03:10:04;;;;;;;;;;;23.30;1.00;;;;;;4870636;29;20385;-48
2023/08/14 03:12:30;;;;;;;;;;;23.30;1.00;;;;;;4868931;29;19927;-44
2023/08/14 03:14:57;;;;;;;;;;;23.30;1.00;;;;;;4862446;29;19930;-46
2023/08/14 03:17:24;;;;;;;;;;;23.30;1.00;;;;;;4878849;29;20323;-50
2023/08/14 03:19:51;;;;;;;;;;;23.30;1.00;;;;;;4886725;29;19958;-48
2023/08/14 03:22:18;;;;;;;;;;;23.30;1.00;;;;;;4862223;29;19923;-48
2023/08/14 03:24:45;;;;;;;;;;;23.30;1.00;;;;;;4879317;29;19978;-46
2023/08/14 03:27:12;;;;;;;;;;;23.30;1.00;;;;;;4867048;29;19923;-47
2023/08/14 03:29:39;;;;;;;;;;;23.30;1.00;;;;;;4871416;29;19923;-50
2023/08/14 03:32:05;;;;;;;;;;;23.30;1.00;;;;;;4880596;29;20018;-44
2023/08/14 03:34:32;;;;;;;;;;;23.30;1.00;;;;;;4873146;29;19923;-45
2023/08/14 03:36:59;;;;;;;;;;;23.30;1.00;;;;;;4865360;29;20374;-49
2023/08/14 03:39:26;;;;;;;;;;;23.30;1.00;;;;;;4872967;29;19924;-49
2023/08/14 03:41:53;;;;;;;;;;;23.30;1.00;;;;;;4865648;29;20287;-44
2023/08/14 03:44:20;;;;;;;;;;;23.30;1.00;;;;;;4872881;29;19923;-48
2023/08/14 03:46:46;;;;;;;;;;;23.20;1.00;;;;;;4865071;29;19924;-46
2023/08/14 03:49:15;;;;;;;;;;;23.30;1.00;;;;;;4865162;29;19930;-48
2023/08/14 03:51:41;;;;;;;;;;;23.30;1.00;;;;;;4865037;29;20007;-52
2023/08/14 03:54:08;;;;;;;;;;;23.20;1.00;;;;;;4881773;29;20025;-44
2023/08/14 03:56:35;;;;;;;;;;;23.20;1.00;;;;;;4869360;29;19930;-49
2023/08/14 03:59:02;;;;;;;;;;;23.20;1.00;;;;;;4867705;29;19924;-49
2023/08/14 04:01:29;;;;;;;;;;;23.20;1.00;;;;;;4885150;29;19993;-45
2023/08/14 04:03:55;;;;;;;;;;;23.20;1.00;;;;;;4885656;29;19924;-50
2023/08/14 04:06:22;;;;;;;;;;;23.20;1.00;;;;;;4864883;29;19932;-50
2023/08/14 04:08:49;;;;;;;;;;;23.20;1.00;;;;;;4895333;29;19930;-44
2023/08/14 04:11:16;;;;;;;;;;;23.20;1.00;;;;;;4872594;29;19923;-47
2023/08/14 04:13:42;;;;;;;;;;;23.20;1.00;;;;;;4868883;29;19927;-47
2023/08/14 04:16:09;;;;;;;;;;;23.20;1.00;;;;;;4884151;29;19924;-47
2023/08/14 04:18:36;;;;;;;;;;;23.20;1.00;;;;;;4895878;29;19930;-52
2023/08/14 04:21:03;;;;;;;;;;;23.20;1.00;;;;;;4880882;29;20368;-47
2023/08/14 04:23:30;;;;;;;;;;;23.10;1.00;;;;;;4889335;29;19930;-50
2023/08/14 04:25:57;;;;;;;;;;;23.10;1.00;;;;;;4872216;29;19927;-46
2023/08/14 04:28:24;;;;;;;;;;;23.20;1.00;;;;;;4888603;29;19930;-47
2023/08/14 04:30:51;;;;;;;;;;;23.10;1.00;;;;;;4864197;29;19924;-47
2023/08/14 04:33:18;;;;;;;;;;;23.10;1.00;;;;;;4888642;29;19927;-47
2023/08/14 04:35:46;;;;;;;;;;;23.10;1.00;;;;;;4871816;29;19923;-47
2023/08/14 04:38:13;;;;;;;;;;;23.10;1.00;;;;;;4872794;29;20402;-45
2023/08/14 04:40:44;;;;;;;;;;;23.10;1.00;;;;;;4877473;29;19924;-49
2023/08/14 04:43:10;;;;;;;;;;;23.10;1.00;;;;;;4896172;29;20303;-48
2023/08/14 04:45:37;;;;;;;;;;;23.10;1.00;;;;;;4864474;29;19923;-51
2023/08/14 04:48:05;;;;;;;;;;;23.10;1.00;;;;;;4888543;29;20367;-46
2023/08/14 04:50:32;;;;;;;;;;;23.10;1.00;;;;;;4891732;29;19924;-45
2023/08/14 04:52:58;;;;;;;;;;;23.10;1.00;;;;;;4875942;29;19923;-49
2023/08/14 04:55:26;;;;;;;;;;;23.10;1.00;;;;;;4863820;29;19930;-46
2023/08/14 04:57:53;;;;;;;;;;;23.10;1.00;;;;;;4877412;29;19930;-46
2023/08/14 05:00:20;;;;;;;;;;;23.10;1.00;;;;;;4872989;29;19927;-52
2023/08/14 05:02:47;;;;;;;;;;;23.10;1.00;;;;;;4863940;29;19924;-48
2023/08/14 05:05:14;;;;;;;;;;;23.10;1.00;;;;;;4888311;29;19924;-47
2023/08/14 05:07:42;;;;;;;;;;;23.10;1.00;;;;;;4867999;29;20003;-48
2023/08/14 05:10:09;;;;;;;;;;;23.10;1.00;;;;;;4866536;29;19924;-48
2023/08/14 05:12:35;;;;;;;;;;;23.10;1.00;;;;;;4888428;29;19947;-51
2023/08/14 05:15:02;;;;;;;;;;;23.10;1.00;;;;;;4863792;29;19932;-46
2023/08/14 05:17:29;;;;;;;;;;;23.10;1.00;;;;;;4871238;29;20019;-48
2023/08/14 05:19:56;;;;;;;;;;;23.10;1.00;;;;;;4877270;29;19924;-50
2023/08/14 05:22:23;;;;;;;;;;;23.00;1.00;;;;;;4864628;29;19927;-46
2023/08/14 05:24:50;;;;;;;;;;;23.10;1.00;;;;;;4868672;29;20055;-46
2023/08/14 05:27:17;;;;;;;;;;;23.00;1.00;;;;;;4873417;29;20445;-49
2023/08/14 05:29:45;;;;;;;;;;;23.00;1.00;;;;;;4887973;29;19923;-49
2023/08/14 05:32:12;;;;;;;;;;;23.00;1.00;;;;;;4879759;29;19923;-45
2023/08/14 05:34:39;;;;;;;;;;;23.00;1.00;;;;;;4880038;29;20411;-50
2023/08/14 05:37:05;;;;;;;;;;;23.00;1.00;;;;;;4887693;29;19930;-46
2023/08/14 05:39:32;;;;;;;;;;;23.00;1.00;;;;;;4882753;29;20224;-49
2023/08/14 05:41:59;;;;;;;;;;;23.00;1.00;;;;;;4890782;29;19923;-46
2023/08/14 05:44:26;;;;;;;;;;;23.00;1.00;;;;;;4888568;29;20425;-46
2023/08/14 05:46:52;;;;;;;;;;;23.00;1.00;;;;;;4879983;29;20392;-50
2023/08/14 05:49:19;;;;;;;;;;;23.00;1.00;;;;;;4886543;29;19931;-50
2023/08/14 05:51:46;;;;;;;;;;;23.00;1.00;;;;;;4887398;29;19930;-45
2023/08/14 05:54:13;;;;;;;;;;;23.00;1.00;;;;;;4879599;29;19928;-45
2023/08/14 05:56:39;;;;;;;;;;;23.00;1.00;;;;;;4887927;29;20035;-45
2023/08/14 05:59:06;;;;;;;;;;;23.00;1.00;;;;;;4879618;29;20487;-50
2023/08/14 06:01:33;;;;;;;;;;;23.00;1.00;;;;;;4879780;29;19987;-52
2023/08/14 06:04:00;;;;;;;;;;;23.00;1.00;;;;;;4885759;29;19923;-52
2023/08/14 06:06:27;;;;;;;;;;;23.00;1.00;;;;;;4864367;29;19976;-51
2023/08/14 06:08:53;;;;;;;;;;;23.00;1.00;;;;;;4879587;29;19930;-46
2023/08/14 06:11:20;;;;;;;;;;;23.00;1.00;;;;;;4879408;29;19930;-50
2023/08/14 06:13:47;;;;;;;;;;;23.00;1.00;;;;;;4887591;29;19923;-49
2023/08/14 06:16:14;;;;;;;;;;;23.00;1.00;;;;;;4887323;29;20387;-47
2023/08/14 06:18:40;;;;;;;;;;;23.00;1.00;;;;;;4879631;29;19923;-51
2023/08/14 06:21:07;;;;;;;;;;;23.00;1.00;;;;;;4886147;29;19962;-49
2023/08/14 06:23:34;;;;;;;;;;;23.00;1.00;;;;;;4880282;29;19930;-51
2023/08/14 06:26:01;;;;;;;;;;;23.00;1.00;;;;;;4879512;29;19923;-47
2023/08/14 06:28:28;;;;;;;;;;;23.00;1.00;;;;;;4879250;29;20378;-47
2023/08/14 06:30:59;;;;;;;;;;;23.00;1.00;;;;;;4885055;29;20294;-52
2023/08/14 06:33:26;;;;;;;;;;;23.00;1.00;;;;;;4882519;29;20277;-47
2023/08/14 06:35:53;;;;;;;;;;;23.00;1.00;;;;;;4885573;29;19928;-46
2023/08/14 06:38:20;;;;;;;;;;;23.00;1.00;;;;;;4887613;29;19924;-45
2023/08/14 06:40:46;;;;;;;;;;;23.00;1.00;;;;;;4886187;29;19924;-51
2023/08/14 06:43:13;;;;;;;;;;;23.00;1.00;;;;;;4886639;29;19984;-48
2023/08/14 06:45:40;;;;;;;;;;;22.90;1.00;;;;;;4879585;29;19923;-49
2023/08/14 06:48:06;;;;;;;;;;;23.00;1.00;;;;;;4885687;29;19939;-52
2023/08/14 06:50:33;;;;;;;;;;;23.00;1.00;;;;;;4880346;29;19928;-52
2023/08/14 06:53:00;;;;;;;;;;;23.00;1.00;;;;;;4879449;29;19932;-46
2023/08/14 06:55:27;;;;;;;;;;;23.00;1.00;;;;;;4887073;29;19923;-46
2023/08/14 06:57:53;;;;;;;;;;;23.00;1.00;;;;;;4874850;29;19930;-49
2023/08/14 07:00:20;;;;;;;;;;;23.00;1.00;;;;;;4892032;29;19924;-48
2023/08/14 07:02:47;;;;;;;;;;;23.00;1.00;;;;;;4890220;29;19924;-50
2023/08/14 07:05:15;;;;;;;;;;;23.00;1.00;;;;;;4889663;29;19923;-50
2023/08/14 07:07:42;;;;;;;;;;;23.00;1.00;;;;;;4885872;29;19930;-52
2023/08/14 07:10:09;;;;;;;;;;;23.00;1.00;;;;;;4887105;29;19923;-47
2023/08/14 07:12:35;;;;;;;;;;;23.00;1.00;;;;;;4890400;29;20395;-48
2023/08/14 07:15:02;;;;;;;;;;;23.00;1.00;;;;;;4882504;29;20159;-49
2023/08/14 07:17:32;;;;;;;;;;;23.00;1.00;;;;;;4899414;29;19923;-50
2023/08/14 07:19:59;;;;;;;;;;;23.00;1.00;;;;;;4896002;29;20019;-52
2023/08/14 07:22:26;;;;;;;;;;;23.00;1.00;;;;;;4883044;29;19931;-52
2023/08/14 07:24:53;;;;;;;;;;;23.00;1.00;;;;;;4897261;29;19924;-46
2023/08/14 07:27:19;;;;;;;;;;;23.00;1.00;;;;;;4897750;29;19924;-49
2023/08/14 07:29:49;;;;;;;;;;;23.00;1.00;;;;;;4882812;29;19928;-46
2023/08/14 07:32:16;;;;;;;;;;;23.00;1.00;;;;;;4882016;29;19930;-48
2023/08/14 07:34:43;;;;;;;;;;;23.00;1.00;;;;;;4889833;29;19934;-50
2023/08/14 07:37:10;;;;;;;;;;;23.00;1.00;;;;;;4888527;29;19971;-49
2023/08/14 07:39:37;;;;;;;;;;;23.00;1.00;;;;;;4883346;29;19994;-46
2023/08/14 07:42:04;;;;;;;;;;;23.00;1.00;;;;;;4889656;29;19924;-50
2023/08/14 07:44:30;;;;;;;;;;;23.00;1.00;;;;;;4889624;29;19923;-50
2023/08/14 07:46:57;;;;;;;;;;;23.00;1.00;;;;;;4886687;29;19966;-49
2023/08/14 07:49:24;;;;;;;;;;;23.00;1.00;;;;;;4884926;29;19948;-51
2023/08/14 07:51:51;;;;;;;;;;;23.00;1.00;;;;;;4888734;29;20018;-50
2023/08/14 07:54:17;;;;;;;;;;;23.00;1.00;;;;;;4887596;29;19923;-45
2023/08/14 07:56:44;;;;;;;;;;;23.00;1.00;;;;;;4880768;29;19923;-51
2023/08/14 07:59:13;;;;;;;;;;;23.00;1.00;;;;;;4880682;29;20018;-51
2023/08/14 08:01:41;;;;;;;;;;;23.00;1.00;;;;;;4882245;29;20018;-49
2023/08/14 08:04:07;;;;;;;;;;;23.00;1.00;;;;;;4885591;29;19931;-48
2023/08/14 08:06:34;;;;;;;;;;;23.00;1.00;;;;;;4880250;29;19923;-51
2023/08/14 08:09:10;;;;;;;;;;;23.00;1.00;;;;;;4880390;29;19924;-48
2023/08/14 08:11:36;;;;;;;;;;;23.00;1.00;;;;;;4879054;29;19931;-50
2023/08/14 08:14:06;;;;;;;;;;;23.00;1.00;;;;;;4880055;29;20448;-49
2023/08/14 08:16:36;;;;;;;;;;;23.00;1.00;;;;;;4879940;29;19928;-50
2023/08/14 08:19:04;;;;;;;;;;;23.00;1.00;;;;;;4886088;29;19949;-50
2023/08/14 08:21:32;;;;;;;;;;;23.00;1.00;;;;;;4884635;29;19930;-51
2023/08/14 08:23:58;;;;;;;;;;;23.00;1.00;;;;;;4880040;29;20352;-55
2023/08/14 08:46:58;;;;;;;;;;;23.00;1.00;;;;;;5157263;23;19924;-48
2023/08/14 08:49:25;;;;;;;;;;;23.00;1.00;;;;;;4890276;29;19924;-46
2023/08/14 08:51:55;;;;;;;;;;;23.00;1.00;;;;;;4894694;29;20353;-51
2023/08/14 08:54:21;;;;;;;;;;;23.00;1.00;;;;;;4886275;29;20402;-48
2023/08/14 08:56:48;;;;;;;;;;;23.00;1.00;;;;;;4879932;29;19959;-51
2023/08/14 08:59:15;;;;;;;;;;;23.00;1.00;;;;;;4879950;29;19924;-50
2023/08/14 09:01:42;;;;;;;;;;;23.00;1.00;;;;;;4871195;29;19956;-50
2023/08/14 09:04:09;;;;;;;;;;;23.00;1.00;;;;;;4888606;29;19923;-49
2023/08/14 09:06:36;;;;;;;;;;;23.00;1.00;;;;;;4889077;29;19973;-48
2023/08/14 09:09:03;;;;;;;;;;;23.00;1.00;;;;;;4887325;29;19924;-50
2023/08/14 09:11:29;;;;;;;;;;;23.00;1.00;;;;;;4895811;29;19923;-51
2023/08/14 09:13:56;;;;;;;;;;;23.00;1.00;;;;;;4876509;29;19928;-46
2023/08/14 09:16:24;;;;;;;;;;;23.00;1.00;;;;;;4884589;29;19924;-51
2023/08/14 09:18:51;;;;;;;;;;;23.00;1.00;;;;;;4888277;29;20230;-46
2023/08/14 09:21:18;;;;;;;;;;;23.00;1.00;;;;;;4882996;29;19924;-51
2023/08/14 09:23:46;;;;;;;;;;;23.00;1.00;;;;;;4880368;29;20388;-46
2023/08/14 09:26:13;;;;;;;;;;;23.00;1.00;;;;;;5492059;23;20861;-47
2023/08/14 09:28:40;;;;;;;;;;;23.00;1.00;;;;;;4913617;29;20026;-47
2023/08/14 09:31:07;;;;;;;;;;;23.10;1.00;;;;;;4916354;29;19923;-45
2023/08/14 09:33:36;;;;;;;;;;;23.10;1.00;;;;;;4924072;29;19923;-50
2023/08/14 09:36:03;;;;;;;;;;;23.10;1.00;;;;;;4903316;29;20003;-52
2023/08/14 09:38:31;;;;;;;;;;;23.10;1.00;;;;;;4897854;29;19946;-45
2023/08/14 09:40:58;;;;;;;;;;;23.00;1.00;;;;;;4893971;29;20182;-50
2023/08/14 09:43:25;;;;;;;;;;;23.10;1.00;;;;;;4903348;29;20034;-46
2023/08/14 09:45:52;;;;;;;;;;;23.10;1.00;;;;;;4898636;29;19923;-48
2023/08/14 09:48:19;;;;;;;;;;;23.10;1.00;;;;;;4912619;29;19923;-44
2023/08/14 09:50:50;;;;;;;;;;;23.10;1.00;;;;;;4909181;29;20336;-52
2023/08/14 09:53:17;;;;;;;;;;;23.10;1.00;;;;;;4911728;29;19923;-45
2023/08/14 09:55:44;;;;;;;;;;;23.10;1.00;;;;;;4905892;29;20399;-47
2023/08/14 09:58:11;;;;;;;;;;;23.10;1.00;;;;;;4897901;29;20034;-48
2023/08/14 10:00:38;;;;;;;;;;;23.10;1.00;;;;;;4888065;29;19923;-49
2023/08/14 10:03:07;;;;;;;;;;;23.10;1.00;;;;;;4897109;29;19930;-50
2023/08/14 10:05:34;;;;;;;;;;;23.10;1.00;;;;;;4897010;29;19924;-49
2023/08/14 10:08:01;;;;;;;;;;;23.10;1.00;;;;;;4897034;29;19923;-45
2023/08/14 10:10:29;;;;;;;;;;;23.10;1.00;;;;;;4896917;29;20021;-46
2023/08/14 10:13:04;;;;;;;;;;;23.10;1.00;;;;;;4896731;29;20264;-46
2023/08/14 10:15:36;;;;;;;;;;;23.10;1.00;;;;;;4896902;29;19927;-47
2023/08/14 10:18:12;;;;;;;;;;;23.10;1.00;;;;;;4896876;29;20399;-48
2023/08/14 10:20:40;;;;;;;;;;;23.10;1.00;;;;;;4896404;29;19927;-47
2023/08/14 10:23:08;;;;;;;;;;;23.10;1.00;;;;;;4896864;29;19923;-44
2023/08/14 10:25:35;;;;;;;;;;;23.10;1.00;;;;;;4896961;29;20447;-48
2023/08/14 10:28:03;;;;;;;;;;;23.10;1.00;;;;;;4896787;29;19951;-46
2023/08/14 10:30:30;;;;;;;;;;;23.10;1.00;;;;;;4896449;29;19927;-56
2023/08/14 10:32:57;;;;;;;;;;;23.10;1.00;;;;;;4903009;29;19931;-46
2023/08/14 10:35:25;;;;;;;;;;;23.10;1.00;;;;;;4907193;29;19923;-46
2023/08/14 10:37:52;;;;;;;;;;;23.10;1.00;;;;;;4908241;29;19927;-48
2023/08/14 10:40:36;;;;;;;;;;;23.10;1.00;;;;;;4900298;29;20335;-50
2023/08/14 10:43:05;;;;;;;;;;;23.10;1.00;;;;;;4892779;29;20352;-44
2023/08/14 10:45:32;;;;;;;;;;;23.10;1.00;;;;;;4900456;29;19928;-44
2023/08/14 10:48:07;;;;;;;;;;;23.10;1.00;;;;;;4900312;29;19923;-44
2023/08/14 10:50:34;;;;;;;;;;;23.20;1.00;;;;;;4900198;29;20383;-50
2023/08/14 10:53:02;;;;;;;;;;;23.10;1.00;;;;;;4900175;29;19950;-46
2023/08/14 10:55:37;;;;;;;;;;;23.20;1.00;;;;;;4914675;29;20252;-49
2023/08/14 10:58:22;;;;;;;;;;;23.10;1.00;;;;;;4900304;29;19930;-49
2023/08/14 11:00:51;;;;;;;;;;;23.20;1.00;;;;;;4899895;29;19971;-46
2023/08/14 11:03:17;;;;;;;;;;;23.10;1.00;;;;;;4900061;29;19923;-57
2023/08/14 11:05:44;;;;;;;;;;;23.20;1.00;;;;;;4900671;29;19924;-49
2023/08/14 11:08:12;;;;;;;;;;;23.20;1.00;;;;;;4911126;29;20267;-46
2023/08/14 11:10:39;;;;;;;;;;;23.20;1.00;;;;;;4903319;29;19924;-45
2023/08/14 11:13:06;;;;;;;;;;;23.20;1.00;;;;;;4900072;29;19927;-47
2023/08/14 11:15:37;;;;;;;;;;;23.20;1.00;;;;;;4899829;29;19966;-49
2023/08/14 11:18:10;;;;;;;;;;;23.20;1.00;;;;;;4899865;29;19939;-49
2023/08/14 11:20:38;;;;;;;;;;;23.20;1.00;;;;;;4899782;29;19924;-51
2023/08/14 11:23:05;;;;;;;;;;;23.20;1.00;;;;;;4899727;29;19923;-49
2023/08/14 11:25:33;;;;;;;;;;;23.20;1.00;;;;;;4899787;29;20391;-50
2023/08/14 11:27:59;;;;;;;;;;;23.20;1.00;;;;;;4899365;29;20339;-50
2023/08/14 11:30:30;;;;;;;;;;;23.20;1.00;;;;;;4907252;29;19923;-51
2023/08/14 11:33:04;;;;;;;;;;;23.20;1.00;;;;;;4909961;29;21711;-51
2023/08/14 11:35:31;;;;;;;;;;;23.20;1.00;;;;;;4904234;29;19927;-58
2023/08/14 11:37:58;;;;;;;;;;;23.20;1.00;;;;;;4899447;29;19924;-51
2023/08/14 11:40:25;;;;;;;;;;;23.20;1.00;;;;;;4907292;29;19945;-51
2023/08/14 11:42:53;;;;;;;;;;;23.20;1.00;;;;;;4899519;29;19934;-49
2023/08/14 11:45:20;;;;;;;;;;;23.20;1.00;;;;;;4898818;29;19970;-51
2023/08/14 11:47:48;;;;;;;;;;;23.20;1.00;;;;;;4898777;29;19927;-49
2023/08/14 11:50:16;;;;;;;;;;;23.20;1.00;;;;;;4899105;29;19930;-50
2023/08/14 11:52:44;;;;;;;;;;;23.20;1.00;;;;;;4899423;29;19923;-46
2023/08/14 11:55:12;;;;;;;;;;;23.20;1.00;;;;;;4907079;29;19923;-50
2023/08/14 11:57:39;;;;;;;;;;;23.20;1.00;;;;;;4899368;29;20337;-48
2023/08/14 12:00:15;;;;;;;;;;;23.20;1.00;;;;;;4901628;29;20391;-51
2023/08/14 12:02:53;;;;;;;;;;;23.20;1.00;;;;;;4901210;29;19927;-50
2023/08/14 12:05:21;;;;;;;;;;;23.20;1.00;;;;;;4903790;29;19923;-51
2023/08/14 12:07:47;;;;;;;;;;;23.30;1.00;;;;;;4901745;29;20398;-49
2023/08/14 12:10:14;;;;;;;;;;;23.30;1.00;;;;;;4899231;29;20342;-49
2023/08/14 12:12:41;;;;;;;;;;;23.20;1.00;;;;;;4898911;29;20336;-49
2023/08/14 12:15:21;;;;;;;;;;;23.20;1.00;;;;;;4892441;29;20035;-51
2023/08/14 12:17:51;;;;;;;;;;;23.30;1.00;;;;;;4898744;29;19930;-49
2023/08/14 12:20:20;;;;;;;;;;;23.20;1.00;;;;;;4898723;29;19924;-51
2023/08/14 12:22:46;;;;;;;;;;;23.30;1.00;;;;;;4898741;29;20470;-46
2023/08/14 12:25:27;;;;;;;;;;;23.20;1.00;;;;;;4898841;29;19930;-48
2023/08/14 12:27:54;;;;;;;;;;;23.30;1.00;;;;;;4898655;29;19930;-50
2023/08/14 12:30:20;;;;;;;;;;;23.30;1.00;;;;;;4898530;29;20410;-48
2023/08/14 12:32:47;;;;;;;;;;;23.30;1.00;;;;;;4898662;29;19923;-48
2023/08/14 12:35:14;;;;;;;;;;;23.30;1.00;;;;;;4898682;29;19923;-51
2023/08/14 12:37:41;;;;;;;;;;;23.30;1.00;;;;;;4898629;29;19927;-50
2023/08/14 12:40:09;;;;;;;;;;;23.30;1.00;;;;;;4881582;29;19945;-44
2023/08/14 12:42:36;;;;;;;;;;;23.20;1.00;;;;;;4898836;29;19970;-48
2023/08/14 12:45:04;;;;;;;;;;;23.30;1.00;;;;;;4898099;29;20348;-47
2023/08/14 12:47:31;;;;;;;;;;;23.30;1.00;;;;;;4903948;29;19946;-51
2023/08/14 12:49:58;;;;;;;;;;;23.30;1.00;;;;;;4900238;29;19924;-51
2023/08/14 12:52:25;;;;;;;;;;;23.30;1.00;;;;;;4898147;29;20022;-50
2023/08/14 12:54:55;;;;;;;;;;;23.30;1.00;;;;;;4897774;29;20295;-51
2023/08/14 12:57:31;;;;;;;;;;;23.30;1.00;;;;;;4897403;29;19923;-50
2023/08/14 12:59:58;;;;;;;;;;;23.30;1.00;;;;;;4905272;29;20438;-49
2023/08/14 13:02:25;;;;;;;;;;;23.30;1.00;;;;;;4897470;29;19929;-51
2023/08/14 13:04:57;;;;;;;;;;;23.30;1.00;;;;;;4897548;29;19923;-47
2023/08/14 13:07:29;;;;;;;;;;;23.30;1.00;;;;;;4897572;29;19923;-51
2023/08/14 13:09:56;;;;;;;;;;;23.30;1.00;;;;;;4897101;29;19927;-51
2023/08/14 13:12:23;;;;;;;;;;;23.30;1.00;;;;;;4897395;29;19929;-50
2023/08/14 13:14:49;;;;;;;;;;;23.30;1.00;;;;;;4897456;29;20341;-47
2023/08/14 13:17:16;;;;;;;;;;;23.30;1.00;;;;;;4889860;29;19923;-50
2023/08/14 13:19:43;;;;;;;;;;;23.30;1.00;;;;;;4897267;29;19927;-49
2023/08/14 13:22:12;;;;;;;;;;;23.30;1.00;;;;;;4904536;29;19931;-48
2023/08/14 13:24:39;;;;;;;;;;;23.30;1.00;;;;;;4897254;29;19930;-51
2023/08/14 13:27:06;;;;;;;;;;;23.30;1.00;;;;;;4896974;29;20399;-47
2023/08/14 13:29:35;;;;;;;;;;;23.30;1.00;;;;;;4897176;29;19924;-45
2023/08/14 13:32:02;;;;;;;;;;;23.30;1.00;;;;;;4896681;29;20400;-50
2023/08/14 13:34:29;;;;;;;;;;;23.30;1.00;;;;;;4897014;29;19924;-48
2023/08/14 13:36:56;;;;;;;;;;;23.30;1.00;;;;;;4896869;29;19927;-49
2023/08/14 13:39:23;;;;;;;;;;;23.30;1.00;;;;;;4897101;29;20141;-45
2023/08/14 13:41:49;;;;;;;;;;;23.40;1.00;;;;;;4903820;29;20139;-44
2023/08/14 13:44:16;;;;;;;;;;;23.30;1.00;;;;;;4896778;29;20042;-50
2023/08/14 13:46:43;;;;;;;;;;;23.30;1.00;;;;;;4896993;29;20282;-47
2023/08/14 13:49:10;;;;;;;;;;;23.40;1.00;;;;;;4904533;29;19923;-48
2023/08/14 13:51:36;;;;;;;;;;;23.40;1.00;;;;;;4902011;29;19923;-51
2023/08/14 13:54:03;;;;;;;;;;;23.40;1.00;;;;;;4898856;29;19927;-44
2023/08/14 13:56:31;;;;;;;;;;;23.40;1.00;;;;;;4896635;29;19930;-49
2023/08/14 13:58:58;;;;;;;;;;;23.40;1.00;;;;;;4896534;29;20288;-51
2023/08/14 14:01:25;;;;;;;;;;;23.40;1.00;;;;;;4896474;29;20018;-51
2023/08/14 14:03:53;;;;;;;;;;;23.40;1.00;;;;;;4896733;29;19934;-49
2023/08/14 14:06:20;;;;;;;;;;;23.40;1.00;;;;;;4896472;29;20040;-50
2023/08/14 14:08:47;;;;;;;;;;;23.40;1.00;;;;;;4895950;29;20392;-49
2023/08/14 14:11:14;;;;;;;;;;;23.40;1.00;;;;;;4896097;29;19927;-51
2023/08/14 14:13:40;;;;;;;;;;;23.40;1.00;;;;;;4896758;29;20043;-46
2023/08/14 14:16:07;;;;;;;;;;;23.40;1.00;;;;;;4896391;29;20361;-51
2023/08/14 14:18:34;;;;;;;;;;;23.40;1.00;;;;;;4896585;29;19923;-49
2023/08/14 14:21:01;;;;;;;;;;;23.40;1.00;;;;;;4903989;29;20340;-48
2023/08/14 14:23:27;;;;;;;;;;;23.40;1.00;;;;;;4896521;29;20026;-51
2023/08/14 14:25:54;;;;;;;;;;;23.40;1.00;;;;;;4886831;29;19978;-45
2023/08/14 14:28:21;;;;;;;;;;;23.40;1.00;;;;;;4896743;29;19931;-47
2023/08/14 14:30:48;;;;;;;;;;;23.40;1.00;;;;;;4896253;29;19927;-51
2023/08/14 14:33:14;;;;;;;;;;;23.40;1.00;;;;;;4896250;29;19931;-48
2023/08/14 14:35:41;;;;;;;;;;;23.40;1.00;;;;;;4896314;29;20302;-46
2023/08/14 14:38:08;;;;;;;;;;;23.40;1.00;;;;;;4896214;29;19927;-51
2023/08/14 14:40:35;;;;;;;;;;;23.40;1.00;;;;;;4896308;29;20023;-49
2023/08/14 14:43:01;;;;;;;;;;;23.50;1.00;;;;;;4896256;29;19959;-50
2023/08/14 14:45:28;;;;;;;;;;;23.40;1.00;;;;;;4899923;29;19958;-50
2023/08/14 14:47:58;;;;;;;;;;;23.50;1.00;;;;;;4899910;29;20387;-45
2023/08/14 14:50:25;;;;;;;;;;;23.50;1.00;;;;;;4888205;29;20300;-46
2023/08/14 14:52:56;;;;;;;;;;;23.50;1.00;;;;;;4896696;29;20395;-52
2023/08/14 14:55:25;;;;;;;;;;;23.50;1.00;;;;;;4896476;29;19966;-49